Lebo, Kansas
Current Conditions -  °F | °C
As of 5:53 AM on Thursday 29 Jan 2015 (Local Time) from KEMP Reporting Station
Overcast Overcast  
Wind Chill: 28°   Ceiling: 2300
Heat Index: 39°   Visibility: 10mi
Dew Point: 30°   Wind: 25mph
Humidity: 70%   Direction: 340°NNW
Pressure: 30.19"   Gusts: 36mph
Location:  38.42°N, 95.85°W
Report Text: KEMP 291153Z AUTO 34022G31KT 10SM OVC023 04/M01 A3019 RMK AO2 PK WND 33032/1100 SLP228 T00391011 10117 20039 51043
Loading
Personal Weather Stations






























Interactive Weather Map New forecast layout! Learn more

10-Day Weather Forecast

Advertisements
Track Severe Weather on mobile